createdAt,value
2023-01-23T00:00:42.892Z,13.88
2023-01-23T00:03:09.349Z,13.23
2023-01-23T00:05:35.763Z,13.23
2023-01-23T00:08:02.215Z,13.15
2023-01-23T00:10:28.598Z,16.67
2023-01-23T00:12:54.980Z,14.90
2023-01-23T00:15:21.337Z,14.05
2023-01-23T00:17:48.452Z,14.35
2023-01-23T00:20:15.212Z,14.30
2023-01-23T00:22:41.739Z,13.43
2023-01-23T00:25:08.281Z,13.55
2023-01-23T00:27:34.670Z,13.43
2023-01-23T00:30:02.191Z,14.18
2023-01-23T00:32:28.872Z,13.50
2023-01-23T00:34:55.371Z,13.10
2023-01-23T00:37:22.030Z,13.63
2023-01-23T00:39:50.896Z,12.82
2023-01-23T00:42:17.849Z,12.52
2023-01-23T00:44:44.282Z,12.93
2023-01-23T00:47:10.734Z,13.52
2023-01-23T00:49:37.120Z,12.63
2023-01-23T00:52:03.526Z,13.85
2023-01-23T00:54:36.601Z,13.43
2023-01-23T00:57:03.252Z,13.20
2023-01-23T00:59:29.760Z,12.85
2023-01-23T01:01:56.149Z,10.52
2023-01-23T01:04:22.592Z,10.50
2023-01-23T01:06:49.005Z,11.05
2023-01-23T01:09:15.390Z,10.68
2023-01-23T01:11:41.863Z,11.20
2023-01-23T01:14:08.347Z,9.80
2023-01-23T01:16:34.887Z,9.60
2023-01-23T01:19:03.000Z,9.13
2023-01-23T01:21:30.259Z,10.70
2023-01-23T01:23:56.788Z,12.20
2023-01-23T01:26:23.288Z,12.30
2023-01-23T01:28:49.756Z,12.65
2023-01-23T01:31:16.533Z,12.77
2023-01-23T01:33:43.958Z,12.55
2023-01-23T01:36:11.152Z,12.57
2023-01-23T01:38:37.601Z,14.70
2023-01-23T01:41:04.396Z,13.50
2023-01-23T01:43:30.921Z,12.63
2023-01-23T01:46:05.882Z,13.52
2023-01-23T01:48:36.752Z,12.25
2023-01-23T01:51:06.635Z,13.02
2023-01-23T01:53:33.558Z,12.80
2023-01-23T01:56:00.597Z,12.68
2023-01-23T01:58:27.574Z,13.57
2023-01-23T02:00:54.369Z,12.25
2023-01-23T02:03:21.206Z,11.43
2023-01-23T02:05:48.836Z,12.30
2023-01-23T02:08:30.325Z,13.23
2023-01-23T02:10:57.943Z,10.27
2023-01-23T02:13:33.472Z,12.57
2023-01-23T02:16:00.925Z,11.82
2023-01-23T02:18:28.448Z,11.70
2023-01-23T02:20:56.592Z,10.80
2023-01-23T02:23:41.898Z,9.90
2023-01-23T02:26:11.324Z,9.77
2023-01-23T02:28:38.018Z,10.35
2023-01-23T02:31:05.080Z,9.93
2023-01-23T02:33:31.525Z,10.63
2023-01-23T02:35:58.267Z,10.98
2023-01-23T02:38:31.597Z,9.68
2023-01-23T02:41:01.344Z,9.50
2023-01-23T02:43:34.665Z,10.07
2023-01-23T02:46:05.020Z,11.35
2023-01-23T02:48:31.485Z,11.45
2023-01-23T02:50:57.992Z,10.52
2023-01-23T02:53:25.723Z,11.30
2023-01-23T02:55:52.337Z,10.38
2023-01-23T02:58:37.597Z,12.77
2023-01-23T03:01:05.303Z,11.15
2023-01-23T03:03:31.781Z,13.05
2023-01-23T03:05:59.338Z,10.75
2023-01-23T03:08:33.406Z,12.40
2023-01-23T03:11:00.579Z,11.90
2023-01-23T03:13:27.069Z,13.05
2023-01-23T03:15:53.525Z,12.23
2023-01-23T03:18:19.984Z,14.70
2023-01-23T03:20:46.465Z,12.40
2023-01-23T03:23:12.862Z,13.70
2023-01-23T03:25:42.886Z,13.45
2023-01-23T03:28:33.203Z,15.95
2023-01-23T03:31:02.691Z,14.13
2023-01-23T03:33:30.416Z,14.97
2023-01-23T03:35:56.803Z,14.63
2023-01-23T03:38:23.202Z,13.50
2023-01-23T03:41:08.905Z,15.77
2023-01-23T03:43:35.253Z,14.73
2023-01-23T03:46:01.673Z,15.00
2023-01-23T03:48:28.150Z,15.02
2023-01-23T03:50:54.588Z,14.73
2023-01-23T03:53:21.377Z,14.18
2023-01-23T03:55:47.859Z,13.70
2023-01-23T03:58:14.252Z,13.13
2023-01-23T04:00:40.636Z,16.05
2023-01-23T04:03:07.105Z,14.48
2023-01-23T04:05:33.759Z,14.38
2023-01-23T04:08:00.314Z,11.77
2023-01-23T04:10:27.296Z,13.85
2023-01-23T04:12:53.696Z,13.65
2023-01-23T04:15:20.128Z,14.43
2023-01-23T04:17:46.541Z,13.68
2023-01-23T04:20:13.612Z,13.63
2023-01-23T04:22:39.980Z,13.07
2023-01-23T04:25:08.948Z,15.15
2023-01-23T04:27:35.335Z,13.00
2023-01-23T04:30:01.784Z,14.02
2023-01-23T04:32:28.211Z,14.35
2023-01-23T04:34:54.628Z,13.90
2023-01-23T04:37:21.036Z,14.07
2023-01-23T04:39:47.489Z,13.48
2023-01-23T04:42:13.892Z,13.50
2023-01-23T04:44:40.325Z,12.82
2023-01-23T04:47:06.705Z,13.77
2023-01-23T04:49:33.164Z,13.10
2023-01-23T04:51:59.653Z,13.00
2023-01-23T04:54:26.165Z,11.63
2023-01-23T04:56:52.611Z,13.82
2023-01-23T04:59:19.079Z,11.98
2023-01-23T05:01:45.500Z,13.02
2023-01-23T05:04:11.938Z,13.68
2023-01-23T05:06:38.794Z,12.05
2023-01-23T05:09:05.635Z,13.02
2023-01-23T05:11:32.046Z,12.75
2023-01-23T05:13:58.456Z,11.88
2023-01-23T05:16:24.920Z,11.88
2023-01-23T05:18:51.327Z,12.63
2023-01-23T05:21:17.795Z,12.93
2023-01-23T05:23:44.174Z,12.90
2023-01-23T05:26:14.317Z,13.05
2023-01-23T05:28:43.609Z,12.15
2023-01-23T05:31:10.210Z,14.20
2023-01-23T05:33:36.687Z,13.63
2023-01-23T05:36:03.441Z,12.02
2023-01-23T05:38:33.621Z,11.95
2023-01-23T05:41:00.152Z,12.05
2023-01-23T05:43:26.593Z,14.02
2023-01-23T05:45:53.097Z,12.60
2023-01-23T05:48:19.550Z,13.80
2023-01-23T05:50:45.973Z,15.05
2023-01-23T05:53:12.380Z,14.38
2023-01-23T05:55:39.341Z,14.15
2023-01-23T05:58:05.809Z,13.65
2023-01-23T06:00:32.263Z,14.70
2023-01-23T06:02:58.638Z,13.82
2023-01-23T06:05:25.244Z,14.30
2023-01-23T06:07:51.672Z,13.02
2023-01-23T06:10:18.563Z,15.07
2023-01-23T06:12:45.159Z,13.20
2023-01-23T06:15:11.852Z,12.70
2023-01-23T06:17:38.381Z,14.35
2023-01-23T06:20:05.042Z,13.65
2023-01-23T06:22:31.632Z,13.70
2023-01-23T06:24:58.122Z,14.07
2023-01-23T06:27:24.559Z,12.40
2023-01-23T06:29:51.070Z,14.38
2023-01-23T06:32:17.494Z,14.52
2023-01-23T06:34:44.089Z,14.35
2023-01-23T06:37:10.536Z,15.07
2023-01-23T06:39:37.578Z,14.45
2023-01-23T06:42:05.990Z,13.70
2023-01-23T06:44:32.500Z,14.93
2023-01-23T06:46:58.933Z,13.60
2023-01-23T06:49:25.336Z,14.60
2023-01-23T06:51:51.723Z,14.20
2023-01-23T06:54:18.218Z,15.77
2023-01-23T06:56:47.227Z,17.75
2023-01-23T06:59:13.663Z,15.90
2023-01-23T07:01:40.228Z,15.57
2023-01-23T07:04:06.834Z,15.30
2023-01-23T07:06:33.236Z,15.25
2023-01-23T07:08:59.752Z,17.00
2023-01-23T07:11:26.779Z,16.27
2023-01-23T07:13:53.726Z,16.27
2023-01-23T07:16:20.378Z,16.25
2023-01-23T07:18:46.857Z,14.65
2023-01-23T07:21:13.425Z,15.77
2023-01-23T07:23:39.826Z,16.00
2023-01-23T07:26:09.702Z,16.05
2023-01-23T07:28:36.913Z,14.95
2023-01-23T07:31:06.094Z,14.55
2023-01-23T07:33:32.652Z,16.02
2023-01-23T07:35:59.137Z,16.35
2023-01-23T07:38:25.949Z,16.33
2023-01-23T07:40:52.563Z,16.33
2023-01-23T07:43:19.299Z,16.90
2023-01-23T07:45:45.712Z,15.38
2023-01-23T07:48:12.301Z,17.30
2023-01-23T07:50:38.698Z,16.67
2023-01-23T07:53:05.854Z,14.45
2023-01-23T07:55:32.295Z,16.85
2023-01-23T07:57:58.590Z,16.73
2023-01-23T08:00:27.123Z,15.75
2023-01-23T08:03:01.206Z,17.58
2023-01-23T08:06:20.791Z,16.02
2023-01-23T08:08:50.720Z,14.30
2023-01-23T08:11:17.270Z,16.65
2023-01-23T08:13:43.731Z,15.75
2023-01-23T08:16:13.741Z,17.65
2023-01-23T08:18:40.399Z,17.35
2023-01-23T08:21:34.323Z,15.52
2023-01-23T08:24:05.029Z,15.15
2023-01-23T08:26:42.134Z,14.30
2023-01-23T08:29:08.527Z,16.55
2023-01-23T08:31:36.204Z,17.75
2023-01-23T08:34:02.672Z,16.98
2023-01-23T08:36:44.848Z,16.10
2023-01-23T08:39:11.271Z,16.27
2023-01-23T08:41:37.829Z,14.75
2023-01-23T08:44:04.338Z,15.60
2023-01-23T08:46:30.742Z,14.55
2023-01-23T08:48:57.148Z,14.50
2023-01-23T08:51:23.643Z,14.85
2023-01-23T08:53:51.717Z,15.07
2023-01-23T08:56:18.933Z,14.40
2023-01-23T08:58:46.046Z,16.80
2023-01-23T09:01:13.604Z,15.25
2023-01-23T09:03:40.106Z,17.40
2023-01-23T09:06:06.875Z,13.93
2023-01-23T09:08:34.697Z,14.52
2023-01-23T09:11:02.472Z,15.23
2023-01-23T09:13:28.874Z,14.55
2023-01-23T09:15:55.323Z,12.65
2023-01-23T09:18:22.862Z,15.38
2023-01-23T09:20:49.496Z,15.73
2023-01-23T09:23:15.839Z,15.23
2023-01-23T09:25:42.282Z,13.10
2023-01-23T09:28:08.810Z,11.68
2023-01-23T09:30:35.340Z,13.00
2023-01-23T09:33:01.747Z,13.20
2023-01-23T09:35:28.100Z,12.52
2023-01-23T09:38:00.475Z,14.90
2023-01-23T09:40:29.508Z,12.68
2023-01-23T09:42:57.351Z,13.93
2023-01-23T09:45:25.426Z,14.38
2023-01-23T09:47:55.925Z,10.48
2023-01-23T09:53:00.017Z,11.27
2023-01-23T09:55:26.411Z,12.63
2023-01-23T10:00:51.097Z,12.50
2023-01-23T10:03:17.767Z,13.50
2023-01-23T10:05:47.272Z,12.73
2023-01-23T10:08:22.320Z,12.50
2023-01-23T10:10:54.447Z,11.05
2023-01-23T10:13:39.455Z,11.82
2023-01-23T10:16:12.403Z,10.90
2023-01-23T10:21:16.458Z,11.43
2023-01-23T10:23:55.800Z,9.63
2023-01-23T10:26:23.708Z,11.63
2023-01-23T10:28:52.986Z,11.88
2023-01-23T10:31:33.948Z,10.25
2023-01-23T10:34:05.340Z,11.32
2023-01-23T10:36:47.795Z,10.55
2023-01-23T10:39:51.887Z,11.32
2023-01-23T10:42:29.641Z,11.55
2023-01-23T10:47:49.909Z,11.40
2023-01-23T10:50:33.304Z,11.05
2023-01-23T10:53:07.111Z,10.50
2023-01-23T10:55:33.500Z,11.02
2023-01-23T10:58:03.247Z,10.20
2023-01-23T11:00:37.112Z,11.30
2023-01-23T11:03:26.314Z,10.32
2023-01-23T11:05:53.879Z,11.60
2023-01-23T11:08:27.747Z,11.38
2023-01-23T11:10:54.909Z,12.48
2023-01-23T11:13:25.439Z,11.45
2023-01-23T11:18:35.598Z,15.90
2023-01-23T11:21:02.163Z,13.90
2023-01-23T11:23:29.392Z,14.68
2023-01-23T11:25:56.560Z,13.13
2023-01-23T11:28:24.969Z,12.32
2023-01-23T11:31:07.916Z,11.60
2023-01-23T11:33:52.094Z,13.90
2023-01-23T11:36:18.471Z,14.48
2023-01-23T11:38:56.803Z,13.05
2023-01-23T11:41:28.794Z,12.45
2023-01-23T11:43:55.350Z,13.05
2023-01-23T11:46:30.957Z,12.90
2023-01-23T11:49:07.063Z,12.60
2023-01-23T11:51:52.348Z,14.15
2023-01-23T11:54:34.326Z,11.68
2023-01-23T11:57:19.251Z,12.65
2023-01-23T12:00:01.291Z,12.60
2023-01-23T12:02:38.415Z,13.15
2023-01-23T12:05:13.923Z,11.63
2023-01-23T12:08:00.574Z,13.43
2023-01-23T12:10:31.148Z,11.77
2023-01-23T12:13:06.745Z,14.90
2023-01-23T12:15:36.145Z,12.85
2023-01-23T12:19:04.083Z,13.45
2023-01-23T12:21:51.710Z,12.20
2023-01-23T12:24:27.497Z,13.32
2023-01-23T12:26:58.458Z,12.20
2023-01-23T12:29:43.740Z,14.38
2023-01-23T12:32:27.658Z,12.38
2023-01-23T12:35:05.282Z,13.45
2023-01-23T12:37:58.063Z,13.75
2023-01-23T12:40:28.040Z,11.82
2023-01-23T12:42:54.419Z,11.35
2023-01-23T12:45:23.383Z,14.68
2023-01-23T12:47:49.963Z,13.60
2023-01-23T12:50:19.618Z,12.75
2023-01-23T12:52:49.179Z,15.18
2023-01-23T12:55:19.178Z,12.95
2023-01-23T12:57:59.897Z,13.95
2023-01-23T13:00:36.476Z,14.02
2023-01-23T13:03:09.058Z,14.07
2023-01-23T13:05:38.578Z,14.30
2023-01-23T13:08:19.069Z,12.67
2023-01-23T13:11:27.690Z,13.13
2023-01-23T13:13:54.457Z,14.48
2023-01-23T13:16:25.231Z,14.75
2023-01-23T13:19:11.903Z,12.70
2023-01-23T13:21:57.162Z,14.43
2023-01-23T13:24:45.949Z,14.70
2023-01-23T13:27:31.376Z,14.63
2023-01-23T13:29:58.905Z,15.27
2023-01-23T13:32:28.542Z,13.15
2023-01-23T13:34:55.215Z,13.27
2023-01-23T13:37:30.855Z,10.95
2023-01-23T13:40:09.526Z,14.70
2023-01-23T13:42:36.095Z,14.30
2023-01-23T13:45:14.718Z,14.35
